sensor_id;sensor_type;location;lat;lon;timestamp;P1;durP1;ratioP1;P2;durP2;ratioP2
72127;SDS011;60000;51.030;7.024;2022-09-29T00:01:20;5.53;;;2.40;;
72127;SDS011;60000;51.030;7.024;2022-09-29T00:03:45;6.83;;;2.27;;
72127;SDS011;60000;51.030;7.024;2022-09-29T00:06:12;6.73;;;2.53;;
72127;SDS011;60000;51.030;7.024;2022-09-29T00:08:39;5.75;;;2.38;;
72127;SDS011;60000;51.030;7.024;2022-09-29T00:11:08;5.13;;;2.10;;
72127;SDS011;60000;51.030;7.024;2022-09-29T00:13:35;5.90;;;2.33;;
72127;SDS011;60000;51.030;7.024;2022-09-29T00:16:01;7.20;;;2.25;;
72127;SDS011;60000;51.030;7.024;2022-09-29T00:18:27;5.78;;;2.15;;
72127;SDS011;60000;51.030;7.024;2022-09-29T00:20:57;4.50;;;1.80;;
72127;SDS011;60000;51.030;7.024;2022-09-29T00:23:24;5.75;;;2.40;;
72127;SDS011;60000;51.030;7.024;2022-09-29T00:28:28;4.45;;;1.67;;
72127;SDS011;60000;51.030;7.024;2022-09-29T00:30:54;4.57;;;1.80;;
72127;SDS011;60000;51.030;7.024;2022-09-29T00:33:19;7.30;;;1.95;;
72127;SDS011;60000;51.030;7.024;2022-09-29T00:35:54;5.05;;;1.90;;
72127;SDS011;60000;51.030;7.024;2022-09-29T00:38:24;4.90;;;1.73;;
72127;SDS011;60000;51.030;7.024;2022-09-29T00:40:49;6.43;;;2.00;;
72127;SDS011;60000;51.030;7.024;2022-09-29T00:43:19;5.43;;;1.97;;
72127;SDS011;60000;51.030;7.024;2022-09-29T00:45:50;7.38;;;2.35;;
72127;SDS011;60000;51.030;7.024;2022-09-29T00:48:20;5.97;;;2.30;;
72127;SDS011;60000;51.030;7.024;2022-09-29T00:50:51;5.40;;;2.30;;
72127;SDS011;60000;51.030;7.024;2022-09-29T00:53:18;8.63;;;2.40;;
72127;SDS011;60000;51.030;7.024;2022-09-29T00:56:07;5.55;;;2.30;;
72127;SDS011;60000;51.030;7.024;2022-09-29T00:58:38;5.40;;;2.00;;
72127;SDS011;60000;51.030;7.024;2022-09-29T01:01:19;5.22;;;2.10;;
72127;SDS011;60000;51.030;7.024;2022-09-29T01:03:50;5.05;;;1.92;;
72127;SDS011;60000;51.030;7.024;2022-09-29T01:06:20;4.77;;;1.77;;
72127;SDS011;60000;51.030;7.024;2022-09-29T01:08:58;4.90;;;1.80;;
72127;SDS011;60000;51.030;7.024;2022-09-29T01:11:26;5.10;;;1.85;;
72127;SDS011;60000;51.030;7.024;2022-09-29T01:13:53;4.07;;;1.33;;
72127;SDS011;60000;51.030;7.024;2022-09-29T01:16:22;5.50;;;1.85;;
72127;SDS011;60000;51.030;7.024;2022-09-29T01:18:48;4.07;;;1.57;;
72127;SDS011;60000;51.030;7.024;2022-09-29T01:24:17;5.63;;;1.85;;
72127;SDS011;60000;51.030;7.024;2022-09-29T01:35:15;6.10;;;1.83;;
72127;SDS011;60000;51.030;7.024;2022-09-29T01:38:12;4.47;;;1.65;;
72127;SDS011;60000;51.030;7.024;2022-09-29T01:43:23;4.85;;;1.88;;
72127;SDS011;60000;51.030;7.024;2022-09-29T01:45:59;4.18;;;1.63;;
72127;SDS011;60000;51.030;7.024;2022-09-29T01:48:30;4.60;;;1.80;;
72127;SDS011;60000;51.030;7.024;2022-09-29T01:51:00;4.75;;;1.80;;
72127;SDS011;60000;51.030;7.024;2022-09-29T01:53:36;5.97;;;2.30;;
72127;SDS011;60000;51.030;7.024;2022-09-29T01:56:07;4.35;;;1.80;;
72127;SDS011;60000;51.030;7.024;2022-09-29T01:58:42;6.70;;;1.63;;
72127;SDS011;60000;51.030;7.024;2022-09-29T02:01:16;4.35;;;1.52;;
72127;SDS011;60000;51.030;7.024;2022-09-29T02:03:47;4.30;;;1.77;;
72127;SDS011;60000;51.030;7.024;2022-09-29T02:06:20;5.13;;;1.50;;
72127;SDS011;60000;51.030;7.024;2022-09-29T02:08:52;3.95;;;1.38;;
72127;SDS011;60000;51.030;7.024;2022-09-29T02:11:19;5.07;;;1.95;;
72127;SDS011;60000;51.030;7.024;2022-09-29T02:13:47;5.30;;;2.13;;
72127;SDS011;60000;51.030;7.024;2022-09-29T02:16:23;4.40;;;1.80;;
72127;SDS011;60000;51.030;7.024;2022-09-29T02:18:52;4.40;;;1.80;;
72127;SDS011;60000;51.030;7.024;2022-09-29T02:21:20;4.82;;;1.50;;
72127;SDS011;60000;51.030;7.024;2022-09-29T02:23:47;5.60;;;1.65;;
72127;SDS011;60000;51.030;7.024;2022-09-29T02:26:13;3.65;;;1.30;;
72127;SDS011;60000;51.030;7.024;2022-09-29T02:28:38;3.93;;;1.40;;
72127;SDS011;60000;51.030;7.024;2022-09-29T02:31:05;4.10;;;1.40;;
72127;SDS011;60000;51.030;7.024;2022-09-29T02:33:31;5.53;;;1.95;;
72127;SDS011;60000;51.030;7.024;2022-09-29T02:38:36;4.63;;;1.88;;
72127;SDS011;60000;51.030;7.024;2022-09-29T02:41:21;4.70;;;1.70;;
72127;SDS011;60000;51.030;7.024;2022-09-29T02:50:02;4.03;;;1.50;;
72127;SDS011;60000;51.030;7.024;2022-09-29T02:55:31;4.23;;;1.53;;
72127;SDS011;60000;51.030;7.024;2022-09-29T02:58:15;4.90;;;1.83;;
72127;SDS011;60000;51.030;7.024;2022-09-29T03:00:44;5.00;;;1.75;;
72127;SDS011;60000;51.030;7.024;2022-09-29T03:03:11;3.97;;;1.48;;
72127;SDS011;60000;51.030;7.024;2022-09-29T03:05:36;5.37;;;2.10;;
72127;SDS011;60000;51.030;7.024;2022-09-29T03:08:02;4.43;;;1.90;;
72127;SDS011;60000;51.030;7.024;2022-09-29T03:10:27;5.30;;;1.88;;
72127;SDS011;60000;51.030;7.024;2022-09-29T03:12:52;5.67;;;1.90;;
72127;SDS011;60000;51.030;7.024;2022-09-29T03:15:18;3.93;;;1.77;;
72127;SDS011;60000;51.030;7.024;2022-09-29T03:17:43;4.90;;;1.77;;
72127;SDS011;60000;51.030;7.024;2022-09-29T03:20:09;5.47;;;2.10;;
72127;SDS011;60000;51.030;7.024;2022-09-29T03:22:35;5.03;;;1.67;;
72127;SDS011;60000;51.030;7.024;2022-09-29T03:25:01;5.10;;;1.97;;
72127;SDS011;60000;51.030;7.024;2022-09-29T03:27:27;6.72;;;2.60;;
72127;SDS011;60000;51.030;7.024;2022-09-29T03:29:52;6.60;;;1.80;;
72127;SDS011;60000;51.030;7.024;2022-09-29T03:32:18;6.67;;;1.67;;
72127;SDS011;60000;51.030;7.024;2022-09-29T03:34:43;5.50;;;2.40;;
72127;SDS011;60000;51.030;7.024;2022-09-29T03:37:08;4.93;;;2.17;;
72127;SDS011;60000;51.030;7.024;2022-09-29T03:39:34;4.43;;;1.47;;
72127;SDS011;60000;51.030;7.024;2022-09-29T03:41:59;5.17;;;1.90;;
72127;SDS011;60000;51.030;7.024;2022-09-29T03:44:24;6.23;;;2.00;;
72127;SDS011;60000;51.030;7.024;2022-09-29T03:46:50;5.35;;;1.88;;
72127;SDS011;60000;51.030;7.024;2022-09-29T03:49:15;5.40;;;1.77;;
72127;SDS011;60000;51.030;7.024;2022-09-29T03:51:41;5.33;;;1.90;;
72127;SDS011;60000;51.030;7.024;2022-09-29T03:54:07;4.43;;;1.73;;
72127;SDS011;60000;51.030;7.024;2022-09-29T03:56:32;3.83;;;1.40;;
72127;SDS011;60000;51.030;7.024;2022-09-29T03:58:58;5.07;;;2.05;;
72127;SDS011;60000;51.030;7.024;2022-09-29T04:01:23;5.67;;;1.77;;
72127;SDS011;60000;51.030;7.024;2022-09-29T04:03:49;4.37;;;1.53;;
72127;SDS011;60000;51.030;7.024;2022-09-29T04:06:14;5.13;;;1.83;;
72127;SDS011;60000;51.030;7.024;2022-09-29T04:08:40;4.77;;;1.83;;
72127;SDS011;60000;51.030;7.024;2022-09-29T04:11:05;5.78;;;1.88;;
72127;SDS011;60000;51.030;7.024;2022-09-29T04:13:30;6.77;;;1.70;;
72127;SDS011;60000;51.030;7.024;2022-09-29T04:16:03;4.68;;;1.80;;
72127;SDS011;60000;51.030;7.024;2022-09-29T04:18:29;6.47;;;2.30;;
72127;SDS011;60000;51.030;7.024;2022-09-29T04:20:55;4.68;;;1.80;;
72127;SDS011;60000;51.030;7.024;2022-09-29T04:23:24;5.53;;;1.83;;
72127;SDS011;60000;51.030;7.024;2022-09-29T04:25:54;4.30;;;1.50;;
72127;SDS011;60000;51.030;7.024;2022-09-29T04:28:23;4.17;;;1.47;;
72127;SDS011;60000;51.030;7.024;2022-09-29T04:30:48;4.78;;;1.80;;
72127;SDS011;60000;51.030;7.024;2022-09-29T04:33:14;6.68;;;1.80;;
72127;SDS011;60000;51.030;7.024;2022-09-29T04:35:39;5.10;;;1.67;;
72127;SDS011;60000;51.030;7.024;2022-09-29T04:38:04;5.10;;;2.03;;
72127;SDS011;60000;51.030;7.024;2022-09-29T04:40:32;6.07;;;2.00;;
72127;SDS011;60000;51.030;7.024;2022-09-29T04:42:57;5.28;;;1.73;;
72127;SDS011;60000;51.030;7.024;2022-09-29T04:45:23;5.37;;;1.63;;
72127;SDS011;60000;51.030;7.024;2022-09-29T04:47:48;4.50;;;1.67;;
72127;SDS011;60000;51.030;7.024;2022-09-29T04:50:13;4.23;;;1.60;;
72127;SDS011;60000;51.030;7.024;2022-09-29T04:52:40;6.63;;;1.63;;
72127;SDS011;60000;51.030;7.024;2022-09-29T04:55:07;5.57;;;1.65;;
72127;SDS011;60000;51.030;7.024;2022-09-29T04:57:35;3.88;;;1.30;;
72127;SDS011;60000;51.030;7.024;2022-09-29T05:00:00;5.37;;;1.90;;
72127;SDS011;60000;51.030;7.024;2022-09-29T05:02:26;3.85;;;1.25;;
72127;SDS011;60000;51.030;7.024;2022-09-29T05:04:51;5.73;;;1.80;;
72127;SDS011;60000;51.030;7.024;2022-09-29T05:07:16;7.20;;;2.07;;
72127;SDS011;60000;51.030;7.024;2022-09-29T05:09:42;5.87;;;1.93;;
72127;SDS011;60000;51.030;7.024;2022-09-29T05:12:07;5.43;;;1.60;;
72127;SDS011;60000;51.030;7.024;2022-09-29T05:14:32;4.87;;;1.70;;
72127;SDS011;60000;51.030;7.024;2022-09-29T05:16:58;5.72;;;2.05;;
72127;SDS011;60000;51.030;7.024;2022-09-29T05:19:24;4.40;;;1.67;;
72127;SDS011;60000;51.030;7.024;2022-09-29T05:21:49;5.33;;;1.70;;
72127;SDS011;60000;51.030;7.024;2022-09-29T05:24:14;6.70;;;2.50;;
72127;SDS011;60000;51.030;7.024;2022-09-29T05:26:40;5.43;;;2.00;;
72127;SDS011;60000;51.030;7.024;2022-09-29T05:29:05;7.05;;;2.20;;
72127;SDS011;60000;51.030;7.024;2022-09-29T05:31:30;7.13;;;2.10;;
72127;SDS011;60000;51.030;7.024;2022-09-29T05:33:56;4.97;;;1.80;;
72127;SDS011;60000;51.030;7.024;2022-09-29T05:36:22;5.83;;;2.10;;
72127;SDS011;60000;51.030;7.024;2022-09-29T05:38:47;5.65;;;2.25;;
72127;SDS011;60000;51.030;7.024;2022-09-29T05:41:13;7.77;;;2.67;;
72127;SDS011;60000;51.030;7.024;2022-09-29T05:43:41;5.50;;;2.35;;
72127;SDS011;60000;51.030;7.024;2022-09-29T05:46:07;5.07;;;1.80;;
72127;SDS011;60000;51.030;7.024;2022-09-29T05:48:33;5.15;;;1.90;;
72127;SDS011;60000;51.030;7.024;2022-09-29T05:51:04;4.78;;;2.00;;
72127;SDS011;60000;51.030;7.024;2022-09-29T05:53:31;4.20;;;1.67;;
72127;SDS011;60000;51.030;7.024;2022-09-29T05:55:57;5.15;;;2.17;;
72127;SDS011;60000;51.030;7.024;2022-09-29T05:58:22;5.15;;;1.80;;
72127;SDS011;60000;51.030;7.024;2022-09-29T06:00:47;13.73;;;2.07;;
72127;SDS011;60000;51.030;7.024;2022-09-29T06:03:13;5.43;;;1.93;;
72127;SDS011;60000;51.030;7.024;2022-09-29T06:05:38;4.93;;;1.67;;
72127;SDS011;60000;51.030;7.024;2022-09-29T06:08:04;5.50;;;1.88;;
72127;SDS011;60000;51.030;7.024;2022-09-29T06:10:30;4.70;;;1.67;;
72127;SDS011;60000;51.030;7.024;2022-09-29T06:12:56;4.60;;;1.67;;
72127;SDS011;60000;51.030;7.024;2022-09-29T06:15:22;5.87;;;2.03;;
72127;SDS011;60000;51.030;7.024;2022-09-29T06:17:54;4.47;;;1.80;;
72127;SDS011;60000;51.030;7.024;2022-09-29T06:20:20;5.40;;;2.30;;
72127;SDS011;60000;51.030;7.024;2022-09-29T06:22:45;8.93;;;3.07;;
72127;SDS011;60000;51.030;7.024;2022-09-29T06:25:11;6.57;;;2.57;;
72127;SDS011;60000;51.030;7.024;2022-09-29T06:27:37;5.43;;;2.63;;
72127;SDS011;60000;51.030;7.024;2022-09-29T06:30:02;5.97;;;2.60;;
72127;SDS011;60000;51.030;7.024;2022-09-29T06:32:28;5.80;;;2.33;;
72127;SDS011;60000;51.030;7.024;2022-09-29T06:34:53;6.17;;;2.47;;
72127;SDS011;60000;51.030;7.024;2022-09-29T06:37:37;5.43;;;2.28;;
72127;SDS011;60000;51.030;7.024;2022-09-29T06:40:07;9.30;;;2.40;;
72127;SDS011;60000;51.030;7.024;2022-09-29T06:42:34;8.77;;;2.50;;
72127;SDS011;60000;51.030;7.024;2022-09-29T06:44:59;6.53;;;2.30;;
72127;SDS011;60000;51.030;7.024;2022-09-29T06:47:25;6.63;;;2.30;;
72127;SDS011;60000;51.030;7.024;2022-09-29T06:49:51;5.88;;;2.28;;
72127;SDS011;60000;51.030;7.024;2022-09-29T06:52:16;5.90;;;2.23;;
72127;SDS011;60000;51.030;7.024;2022-09-29T06:54:42;7.37;;;2.43;;
72127;SDS011;60000;51.030;7.024;2022-09-29T06:57:08;7.53;;;2.28;;
72127;SDS011;60000;51.030;7.024;2022-09-29T06:59:33;5.90;;;2.17;;
72127;SDS011;60000;51.030;7.024;2022-09-29T07:01:59;7.33;;;2.47;;
72127;SDS011;60000;51.030;7.024;2022-09-29T07:04:24;6.83;;;2.20;;
72127;SDS011;60000;51.030;7.024;2022-09-29T07:06:49;6.18;;;2.58;;
72127;SDS011;60000;51.030;7.024;2022-09-29T07:09:15;6.70;;;3.00;;
72127;SDS011;60000;51.030;7.024;2022-09-29T07:11:45;5.97;;;2.50;;
72127;SDS011;60000;51.030;7.024;2022-09-29T07:14:15;6.82;;;2.35;;
72127;SDS011;60000;51.030;7.024;2022-09-29T07:16:42;6.83;;;2.33;;
72127;SDS011;60000;51.030;7.024;2022-09-29T07:19:08;6.35;;;2.35;;
72127;SDS011;60000;51.030;7.024;2022-09-29T07:21:33;6.73;;;2.23;;
72127;SDS011;60000;51.030;7.024;2022-09-29T07:23:59;7.78;;;3.05;;
72127;SDS011;60000;51.030;7.024;2022-09-29T07:26:24;6.77;;;2.73;;
72127;SDS011;60000;51.030;7.024;2022-09-29T07:28:50;7.27;;;3.00;;
72127;SDS011;60000;51.030;7.024;2022-09-29T07:31:16;6.23;;;2.40;;
72127;SDS011;60000;51.030;7.024;2022-09-29T07:33:43;6.93;;;2.90;;
72127;SDS011;60000;51.030;7.024;2022-09-29T07:36:10;6.22;;;2.53;;
72127;SDS011;60000;51.030;7.024;2022-09-29T07:38:36;11.47;;;2.70;;
72127;SDS011;60000;51.030;7.024;2022-09-29T07:41:02;5.55;;;2.45;;
72127;SDS011;60000;51.030;7.024;2022-09-29T07:43:29;7.15;;;2.50;;
72127;SDS011;60000;51.030;7.024;2022-09-29T07:45:54;6.13;;;2.47;;
72127;SDS011;60000;51.030;7.024;2022-09-29T07:48:20;5.87;;;2.53;;
72127;SDS011;60000;51.030;7.024;2022-09-29T07:50:46;7.03;;;2.47;;
72127;SDS011;60000;51.030;7.024;2022-09-29T07:53:11;6.93;;;2.20;;
72127;SDS011;60000;51.030;7.024;2022-09-29T07:55:37;5.78;;;2.63;;
72127;SDS011;60000;51.030;7.024;2022-09-29T07:58:03;5.30;;;2.50;;
72127;SDS011;60000;51.030;7.024;2022-09-29T08:00:29;8.30;;;2.63;;
72127;SDS011;60000;51.030;7.024;2022-09-29T08:02:57;5.68;;;2.40;;
72127;SDS011;60000;51.030;7.024;2022-09-29T08:05:27;4.80;;;2.00;;
72127;SDS011;60000;51.030;7.024;2022-09-29T08:07:53;5.15;;;2.35;;
72127;SDS011;60000;51.030;7.024;2022-09-29T08:10:18;6.90;;;2.33;;
72127;SDS011;60000;51.030;7.024;2022-09-29T08:12:44;5.22;;;2.15;;
72127;SDS011;60000;51.030;7.024;2022-09-29T08:15:09;5.23;;;2.20;;
72127;SDS011;60000;51.030;7.024;2022-09-29T08:17:34;7.27;;;2.27;;
72127;SDS011;60000;51.030;7.024;2022-09-29T08:20:00;6.03;;;2.23;;
72127;SDS011;60000;51.030;7.024;2022-09-29T08:22:25;5.13;;;2.40;;
72127;SDS011;60000;51.030;7.024;2022-09-29T08:24:50;7.00;;;2.77;;
72127;SDS011;60000;51.030;7.024;2022-09-29T08:27:16;11.60;;;2.83;;
72127;SDS011;60000;51.030;7.024;2022-09-29T08:29:41;5.43;;;2.10;;
72127;SDS011;60000;51.030;7.024;2022-09-29T08:32:06;6.40;;;2.50;;
72127;SDS011;60000;51.030;7.024;2022-09-29T08:34:31;6.30;;;2.87;;
72127;SDS011;60000;51.030;7.024;2022-09-29T08:36:57;6.37;;;2.53;;
72127;SDS011;60000;51.030;7.024;2022-09-29T08:39:22;5.30;;;2.33;;
72127;SDS011;60000;51.030;7.024;2022-09-29T08:45:05;6.03;;;2.88;;
72127;SDS011;60000;51.030;7.024;2022-09-29T08:47:39;8.00;;;3.22;;
72127;SDS011;60000;51.030;7.024;2022-09-29T08:50:12;5.70;;;2.60;;
72127;SDS011;60000;51.030;7.024;2022-09-29T08:52:43;6.30;;;2.60;;
72127;SDS011;60000;51.030;7.024;2022-09-29T08:57:40;6.23;;;2.60;;
72127;SDS011;60000;51.030;7.024;2022-09-29T09:00:09;8.02;;;2.65;;
72127;SDS011;60000;51.030;7.024;2022-09-29T09:02:54;5.65;;;2.38;;
72127;SDS011;60000;51.030;7.024;2022-09-29T09:08:34;5.83;;;2.37;;
72127;SDS011;60000;51.030;7.024;2022-09-29T09:14:06;4.90;;;2.13;;
72127;SDS011;60000;51.030;7.024;2022-09-29T09:19:42;6.13;;;2.38;;
72127;SDS011;60000;51.030;7.024;2022-09-29T09:22:46;6.00;;;2.60;;
72127;SDS011;60000;51.030;7.024;2022-09-29T09:25:34;5.80;;;2.20;;
72127;SDS011;60000;51.030;7.024;2022-09-29T09:28:10;6.93;;;2.70;;
72127;SDS011;60000;51.030;7.024;2022-09-29T09:30:56;5.63;;;2.10;;
72127;SDS011;60000;51.030;7.024;2022-09-29T09:33:26;9.45;;;2.50;;
72127;SDS011;60000;51.030;7.024;2022-09-29T09:36:01;5.23;;;2.40;;
72127;SDS011;60000;51.030;7.024;2022-09-29T09:38:36;4.82;;;2.10;;
72127;SDS011;60000;51.030;7.024;2022-09-29T09:41:08;8.18;;;2.30;;
72127;SDS011;60000;51.030;7.024;2022-09-29T09:43:36;7.18;;;2.50;;
72127;SDS011;60000;51.030;7.024;2022-09-29T09:49:16;4.87;;;2.20;;
72127;SDS011;60000;51.030;7.024;2022-09-29T09:51:58;5.20;;;2.45;;
72127;SDS011;60000;51.030;7.024;2022-09-29T09:54:35;10.38;;;3.05;;
72127;SDS011;60000;51.030;7.024;2022-09-29T10:02:26;5.27;;;2.03;;
72127;SDS011;60000;51.030;7.024;2022-09-29T10:04:54;9.75;;;2.10;;
72127;SDS011;60000;51.030;7.024;2022-09-29T10:07:22;7.18;;;2.38;;
72127;SDS011;60000;51.030;7.024;2022-09-29T10:09:51;7.05;;;2.50;;
72127;SDS011;60000;51.030;7.024;2022-09-29T10:12:18;8.57;;;2.60;;
72127;SDS011;60000;51.030;7.024;2022-09-29T10:14:54;5.68;;;2.33;;
72127;SDS011;60000;51.030;7.024;2022-09-29T10:17:24;6.15;;;2.40;;
72127;SDS011;60000;51.030;7.024;2022-09-29T10:20:04;5.55;;;2.08;;
72127;SDS011;60000;51.030;7.024;2022-09-29T10:22:31;5.10;;;2.27;;
72127;SDS011;60000;51.030;7.024;2022-09-29T10:27:43;5.97;;;2.42;;
72127;SDS011;60000;51.030;7.024;2022-09-29T10:30:16;5.45;;;2.42;;
72127;SDS011;60000;51.030;7.024;2022-09-29T10:32:43;8.95;;;2.70;;
72127;SDS011;60000;51.030;7.024;2022-09-29T10:37:42;6.68;;;3.20;;
72127;SDS011;60000;51.030;7.024;2022-09-29T10:40:15;7.88;;;3.03;;
72127;SDS011;60000;51.030;7.024;2022-09-29T10:42:46;6.10;;;2.80;;
72127;SDS011;60000;51.030;7.024;2022-09-29T10:45:25;6.50;;;2.92;;
72127;SDS011;60000;51.030;7.024;2022-09-29T10:52:54;8.43;;;2.92;;
72127;SDS011;60000;51.030;7.024;2022-09-29T10:55:22;9.95;;;3.13;;
72127;SDS011;60000;51.030;7.024;2022-09-29T10:57:50;6.15;;;2.78;;
72127;SDS011;60000;51.030;7.024;2022-09-29T11:02:53;8.25;;;2.78;;
72127;SDS011;60000;51.030;7.024;2022-09-29T11:05:26;6.88;;;2.97;;
72127;SDS011;60000;51.030;7.024;2022-09-29T11:07:51;6.13;;;2.43;;
72127;SDS011;60000;51.030;7.024;2022-09-29T11:13:14;5.60;;;2.65;;
72127;SDS011;60000;51.030;7.024;2022-09-29T11:15:48;6.78;;;2.60;;
72127;SDS011;60000;51.030;7.024;2022-09-29T11:18:18;7.47;;;2.80;;
72127;SDS011;60000;51.030;7.024;2022-09-29T11:20:53;6.28;;;2.55;;
72127;SDS011;60000;51.030;7.024;2022-09-29T11:23:46;4.93;;;2.15;;
72127;SDS011;60000;51.030;7.024;2022-09-29T11:32:42;8.60;;;2.30;;
72127;SDS011;60000;51.030;7.024;2022-09-29T11:43:49;5.50;;;1.80;;
72127;SDS011;60000;51.030;7.024;2022-09-29T11:49:14;5.75;;;1.88;;
72127;SDS011;60000;51.030;7.024;2022-09-29T12:04:57;4.78;;;1.80;;
72127;SDS011;60000;51.030;7.024;2022-09-29T12:12:41;4.17;;;1.70;;
72127;SDS011;60000;51.030;7.024;2022-09-29T12:17:35;3.93;;;1.40;;
72127;SDS011;60000;51.030;7.024;2022-09-29T12:25:12;5.32;;;1.40;;
72127;SDS011;60000;51.030;7.024;2022-09-29T12:27:41;4.28;;;1.70;;
72127;SDS011;60000;51.030;7.024;2022-09-29T12:30:28;3.80;;;1.40;;
72127;SDS011;60000;51.030;7.024;2022-09-29T12:38:44;4.68;;;1.23;;
72127;SDS011;60000;51.030;7.024;2022-09-29T12:41:44;4.15;;;1.50;;
72127;SDS011;60000;51.030;7.024;2022-09-29T12:44:03;4.87;;;1.73;;
72127;SDS011;60000;51.030;7.024;2022-09-29T12:46:40;4.20;;;1.40;;
72127;SDS011;60000;51.030;7.024;2022-09-29T12:49:18;3.95;;;1.40;;
72127;SDS011;60000;51.030;7.024;2022-09-29T12:51:51;5.28;;;1.83;;
72127;SDS011;60000;51.030;7.024;2022-09-29T12:57:15;6.37;;;1.30;;
72127;SDS011;60000;51.030;7.024;2022-09-29T13:27:36;4.13;;;1.30;;
72127;SDS011;60000;51.030;7.024;2022-09-29T13:32:41;4.25;;;1.67;;
72127;SDS011;60000;51.030;7.024;2022-09-29T13:35:11;3.85;;;1.30;;
72127;SDS011;60000;51.030;7.024;2022-09-29T13:38:04;5.30;;;1.40;;
72127;SDS011;60000;51.030;7.024;2022-09-29T13:40:29;4.50;;;1.40;;
72127;SDS011;60000;51.030;7.024;2022-09-29T13:42:56;5.55;;;1.60;;
72127;SDS011;60000;51.030;7.024;2022-09-29T13:58:26;6.00;;;1.80;;
72127;SDS011;60000;51.030;7.024;2022-09-29T14:00:54;5.10;;;2.10;;
72127;SDS011;60000;51.030;7.024;2022-09-29T14:08:34;4.03;;;1.40;;
72127;SDS011;60000;51.030;7.024;2022-09-29T14:11:05;4.22;;;1.73;;
72127;SDS011;60000;51.030;7.024;2022-09-29T14:13:46;3.72;;;1.40;;
72127;SDS011;60000;51.030;7.024;2022-09-29T14:19:20;7.00;;;1.63;;
72127;SDS011;60000;51.030;7.024;2022-09-29T14:21:46;3.78;;;1.40;;
72127;SDS011;60000;51.030;7.024;2022-09-29T14:29:52;4.20;;;1.60;;
72127;SDS011;60000;51.030;7.024;2022-09-29T14:35:28;4.32;;;1.50;;
72127;SDS011;60000;51.030;7.024;2022-09-29T14:37:58;8.88;;;1.88;;
72127;SDS011;60000;51.030;7.024;2022-09-29T14:40:27;8.35;;;1.70;;
72127;SDS011;60000;51.030;7.024;2022-09-29T14:43:13;5.00;;;1.73;;
72127;SDS011;60000;51.030;7.024;2022-09-29T15:00:27;4.65;;;1.65;;
72127;SDS011;60000;51.030;7.024;2022-09-29T15:03:14;7.60;;;1.60;;
72127;SDS011;60000;51.030;7.024;2022-09-29T15:06:02;5.25;;;1.65;;
72127;SDS011;60000;51.030;7.024;2022-09-29T15:08:30;4.85;;;1.80;;
72127;SDS011;60000;51.030;7.024;2022-09-29T15:10:58;5.30;;;1.80;;
72127;SDS011;60000;51.030;7.024;2022-09-29T15:13:25;4.77;;;2.03;;
72127;SDS011;60000;51.030;7.024;2022-09-29T15:15:58;5.60;;;2.10;;
72127;SDS011;60000;51.030;7.024;2022-09-29T15:20:59;6.57;;;1.77;;
72127;SDS011;60000;51.030;7.024;2022-09-29T15:26:19;5.63;;;2.00;;
72127;SDS011;60000;51.030;7.024;2022-09-29T15:28:45;4.70;;;1.93;;
72127;SDS011;60000;51.030;7.024;2022-09-29T15:31:13;4.40;;;1.80;;
72127;SDS011;60000;51.030;7.024;2022-09-29T15:33:41;6.82;;;2.35;;
72127;SDS011;60000;51.030;7.024;2022-09-29T16:40:51;8.63;;;2.10;;
72127;SDS011;60000;51.030;7.024;2022-09-29T16:43:18;5.30;;;1.80;;
72127;SDS011;60000;51.030;7.024;2022-09-29T16:45:50;4.63;;;2.00;;
72127;SDS011;60000;51.030;7.024;2022-09-29T16:48:20;6.68;;;1.95;;
72127;SDS011;60000;51.030;7.024;2022-09-29T16:50:58;5.35;;;1.90;;
72127;SDS011;60000;51.030;7.024;2022-09-29T16:53:28;4.53;;;1.70;;
72127;SDS011;60000;51.030;7.024;2022-09-29T16:55:56;7.70;;;2.30;;
72127;SDS011;60000;51.030;7.024;2022-09-29T16:58:33;5.13;;;1.98;;
72127;SDS011;60000;51.030;7.024;2022-09-29T17:01:00;6.05;;;1.80;;
72127;SDS011;60000;51.030;7.024;2022-09-29T17:03:27;6.53;;;2.20;;
72127;SDS011;60000;51.030;7.024;2022-09-29T17:05:53;6.57;;;2.20;;
72127;SDS011;60000;51.030;7.024;2022-09-29T17:11:02;5.93;;;2.03;;
72127;SDS011;60000;51.030;7.024;2022-09-29T17:13:29;5.10;;;2.10;;
72127;SDS011;60000;51.030;7.024;2022-09-29T17:15:57;5.55;;;1.83;;
72127;SDS011;60000;51.030;7.024;2022-09-29T17:18:23;6.43;;;1.73;;
72127;SDS011;60000;51.030;7.024;2022-09-29T17:20:51;4.70;;;1.92;;
72127;SDS011;60000;51.030;7.024;2022-09-29T17:23:16;4.60;;;2.10;;
72127;SDS011;60000;51.030;7.024;2022-09-29T17:25:45;4.72;;;1.85;;
72127;SDS011;60000;51.030;7.024;2022-09-29T17:28:13;5.93;;;2.45;;
72127;SDS011;60000;51.030;7.024;2022-09-29T17:30:43;5.82;;;2.30;;
72127;SDS011;60000;51.030;7.024;2022-09-29T17:33:10;7.55;;;2.60;;
72127;SDS011;60000;51.030;7.024;2022-09-29T17:35:47;7.00;;;2.50;;
72127;SDS011;60000;51.030;7.024;2022-09-29T17:38:18;8.05;;;2.78;;
72127;SDS011;60000;51.030;7.024;2022-09-29T17:41:01;7.90;;;2.13;;
72127;SDS011;60000;51.030;7.024;2022-09-29T17:43:29;6.28;;;2.38;;
72127;SDS011;60000;51.030;7.024;2022-09-29T17:45:57;4.50;;;1.75;;
72127;SDS011;60000;51.030;7.024;2022-09-29T17:48:25;6.57;;;2.40;;
72127;SDS011;60000;51.030;7.024;2022-09-29T17:51:02;7.10;;;2.10;;
72127;SDS011;60000;51.030;7.024;2022-09-29T17:53:31;4.72;;;1.85;;
72127;SDS011;60000;51.030;7.024;2022-09-29T17:55:56;5.37;;;2.10;;
72127;SDS011;60000;51.030;7.024;2022-09-29T17:58:22;5.80;;;2.13;;
72127;SDS011;60000;51.030;7.024;2022-09-29T18:00:48;6.50;;;2.77;;
72127;SDS011;60000;51.030;7.024;2022-09-29T18:03:17;6.32;;;2.40;;
72127;SDS011;60000;51.030;7.024;2022-09-29T18:05:44;6.38;;;2.67;;
72127;SDS011;60000;51.030;7.024;2022-09-29T18:08:14;7.07;;;2.72;;
72127;SDS011;60000;51.030;7.024;2022-09-29T18:10:54;7.60;;;2.70;;
72127;SDS011;60000;51.030;7.024;2022-09-29T18:13:21;7.93;;;2.80;;
72127;SDS011;60000;51.030;7.024;2022-09-29T18:15:48;7.50;;;2.70;;
72127;SDS011;60000;51.030;7.024;2022-09-29T18:18:14;8.93;;;2.67;;
72127;SDS011;60000;51.030;7.024;2022-09-29T18:20:45;6.30;;;2.70;;
72127;SDS011;60000;51.030;7.024;2022-09-29T18:23:11;6.60;;;2.60;;
72127;SDS011;60000;51.030;7.024;2022-09-29T18:25:39;7.50;;;2.58;;
72127;SDS011;60000;51.030;7.024;2022-09-29T18:28:05;7.65;;;2.55;;
72127;SDS011;60000;51.030;7.024;2022-09-29T18:30:33;5.60;;;2.50;;
72127;SDS011;60000;51.030;7.024;2022-09-29T18:33:04;7.57;;;2.50;;
72127;SDS011;60000;51.030;7.024;2022-09-29T18:35:31;8.00;;;2.72;;
72127;SDS011;60000;51.030;7.024;2022-09-29T18:37:58;6.40;;;2.80;;
72127;SDS011;60000;51.030;7.024;2022-09-29T18:40:24;6.97;;;2.42;;
72127;SDS011;60000;51.030;7.024;2022-09-29T18:42:51;6.18;;;2.55;;
72127;SDS011;60000;51.030;7.024;2022-09-29T18:45:25;7.07;;;3.03;;
72127;SDS011;60000;51.030;7.024;2022-09-29T18:47:54;7.00;;;2.65;;
72127;SDS011;60000;51.030;7.024;2022-09-29T18:50:33;7.75;;;2.88;;
72127;SDS011;60000;51.030;7.024;2022-09-29T18:53:00;7.68;;;2.78;;
72127;SDS011;60000;51.030;7.024;2022-09-29T18:55:26;7.00;;;2.80;;
72127;SDS011;60000;51.030;7.024;2022-09-29T18:57:54;7.70;;;3.53;;
72127;SDS011;60000;51.030;7.024;2022-09-29T19:00:22;11.23;;;4.25;;
72127;SDS011;60000;51.030;7.024;2022-09-29T19:02:49;10.55;;;4.68;;
72127;SDS011;60000;51.030;7.024;2022-09-29T19:05:18;9.27;;;3.67;;
72127;SDS011;60000;51.030;7.024;2022-09-29T19:07:47;7.22;;;3.38;;
72127;SDS011;60000;51.030;7.024;2022-09-29T19:10:15;7.20;;;3.40;;
72127;SDS011;60000;51.030;7.024;2022-09-29T19:12:41;9.03;;;3.20;;
72127;SDS011;60000;51.030;7.024;2022-09-29T19:15:12;7.57;;;3.30;;
72127;SDS011;60000;51.030;7.024;2022-09-29T19:17:40;15.63;;;3.22;;
72127;SDS011;60000;51.030;7.024;2022-09-29T19:20:05;7.13;;;3.37;;
72127;SDS011;60000;51.030;7.024;2022-09-29T19:22:31;9.25;;;3.35;;
72127;SDS011;60000;51.030;7.024;2022-09-29T19:25:04;7.50;;;3.37;;
72127;SDS011;60000;51.030;7.024;2022-09-29T19:27:29;8.30;;;3.40;;